Time,TemperatureF,DewpointF,PressureIn,WindDirection,WindDirectionDegrees,WindSpeedMPH,WindSpeedGustMPH,Humidity,HourlyPrecipIn,Conditions,Clouds,dailyrainin,SoftwareType,DateUTC
2013-10-13 00:01:00,61.0,55.8,29.96,SW,234,0.0,0.0,83,0.00,,---,0.00,VWS V13.01,2013-10-13 04:01:00,
2013-10-13 00:02:00,61.0,55.8,29.96,SW,234,0.0,0.0,83,0.00,,---,0.00,VWS V13.01,2013-10-13 04:02:00,
2013-10-13 00:07:00,61.0,55.8,29.96,SW,234,0.0,0.0,83,0.00,,---,0.00,VWS V13.01,2013-10-13 04:07:00,
2013-10-13 00:12:00,61.0,55.8,29.96,SW,234,0.0,0.0,83,0.00,,---,0.00,VWS V13.01,2013-10-13 04:12:00,
2013-10-13 00:17:00,61.0,55.8,29.96,SW,234,0.0,0.0,83,0.00,,---,0.00,VWS V13.01,2013-10-13 04:17:00,
2013-10-13 00:22:00,61.0,55.8,29.96,SW,234,0.0,0.0,83,0.00,,---,0.00,VWS V13.01,2013-10-13 04:22:00,
2013-10-13 00:27:00,61.0,55.8,29.96,SW,234,0.0,0.0,83,0.04,,---,0.04,VWS V13.01,2013-10-13 04:27:00,
2013-10-13 00:32:00,61.0,55.8,29.96,SW,234,0.0,0.0,83,0.04,,---,0.04,VWS V13.01,2013-10-13 04:32:00,
2013-10-13 00:37:00,61.0,55.8,29.96,SW,232,0.0,0.0,83,0.04,,---,0.04,VWS V13.01,2013-10-13 04:37:00,
2013-10-13 00:42:00,61.0,55.8,29.96,SW,230,0.0,0.0,83,0.04,,---,0.04,VWS V13.01,2013-10-13 04:42:00,
2013-10-13 00:47:00,61.0,55.8,29.96,SW,230,0.0,0.0,83,0.04,,---,0.04,VWS V13.01,2013-10-13 04:47:00,
2013-10-13 00:52:00,61.0,56.1,29.96,SW,230,0.0,0.0,84,0.04,,---,0.04,VWS V13.01,2013-10-13 04:52:00,
2013-10-13 00:57:00,61.0,56.1,29.96,SW,224,0.0,0.0,84,0.04,,---,0.04,VWS V13.01,2013-10-13 04:57:00,
2013-10-13 01:02:00,61.0,56.1,29.96,SW,230,0.0,0.0,84,0.04,,---,0.04,VWS V13.01,2013-10-13 05:02:00,
2013-10-13 01:07:00,61.0,56.1,29.96,SW,230,0.0,0.0,84,0.04,,---,0.04,VWS V13.01,2013-10-13 05:07:00,
2013-10-13 01:12:00,61.0,56.1,29.96,SW,230,0.0,0.0,84,0.04,,---,0.04,VWS V13.01,2013-10-13 05:12:00,
2013-10-13 01:17:00,61.0,56.1,29.96,SW,230,0.0,0.0,84,0.04,,---,0.04,VWS V13.01,2013-10-13 05:17:00,
2013-10-13 01:22:00,61.0,56.5,29.96,SW,230,0.0,0.0,85,0.04,,---,0.04,VWS V13.01,2013-10-13 05:22:00,
2013-10-13 01:27:00,61.0,56.5,29.96,SW,230,0.0,0.0,85,0.00,,---,0.04,VWS V13.01,2013-10-13 05:27:00,
2013-10-13 01:32:00,61.0,56.5,29.96,SW,230,0.0,0.0,85,0.00,,---,0.04,VWS V13.01,2013-10-13 05:32:00,
2013-10-13 01:37:00,61.0,56.5,29.96,SW,230,0.0,0.0,85,0.00,,---,0.04,VWS V13.01,2013-10-13 05:37:00,
2013-10-13 01:42:00,61.0,56.5,29.96,SW,230,0.0,0.0,85,0.00,,---,0.04,VWS V13.01,2013-10-13 05:42:00,
2013-10-13 01:47:00,60.8,56.3,29.96,SW,230,0.0,0.0,85,0.00,,---,0.04,VWS V13.01,2013-10-13 05:47:00,
2013-10-13 01:52:00,60.8,56.3,29.96,SW,230,0.0,0.0,85,0.00,,---,0.04,VWS V13.01,2013-10-13 05:52:00,
2013-10-13 01:57:00,60.8,56.3,29.96,SW,230,0.0,0.0,85,0.00,,---,0.04,VWS V13.01,2013-10-13 05:57:00,
2013-10-13 02:02:00,60.8,56.3,29.96,SW,220,0.0,0.0,85,0.00,,---,0.04,VWS V13.01,2013-10-13 06:02:00,
2013-10-13 02:07:00,60.8,56.3,29.96,SW,229,0.0,0.0,85,0.00,,---,0.04,VWS V13.01,2013-10-13 06:07:00,
2013-10-13 02:12:00,60.8,56.3,29.96,SW,229,0.0,0.0,85,0.00,,---,0.04,VWS V13.01,2013-10-13 06:12:00,
2013-10-13 02:17:00,60.6,56.4,29.96,SW,229,0.0,0.0,86,0.00,,---,0.04,VWS V13.01,2013-10-13 06:17:00,
2013-10-13 02:22:00,60.6,56.4,29.96,SW,230,3.6,3.6,86,0.00,,---,0.04,VWS V13.01,2013-10-13 06:22:00,
2013-10-13 02:27:00,60.6,56.4,29.96,SW,230,0.0,0.0,86,0.00,,---,0.04,VWS V13.01,2013-10-13 06:27:00,
2013-10-13 02:32:00,60.6,56.4,29.96,SW,230,0.0,0.0,86,0.00,,---,0.04,VWS V13.01,2013-10-13 06:32:00,
2013-10-13 02:37:00,60.6,56.4,29.96,SW,230,0.0,0.0,86,0.00,,---,0.04,VWS V13.01,2013-10-13 06:37:00,
2013-10-13 02:42:00,60.6,56.4,29.96,SW,222,0.0,0.0,86,0.00,,---,0.04,VWS V13.01,2013-10-13 06:42:00,
2013-10-13 02:47:00,60.6,56.4,29.96,SSW,212,0.0,0.0,86,0.00,,---,0.04,VWS V13.01,2013-10-13 06:47:00,
2013-10-13 02:52:00,60.6,56.4,29.96,WSW,243,4.0,4.0,86,0.00,,---,0.04,VWS V13.01,2013-10-13 06:52:00,
2013-10-13 02:57:00,60.4,55.9,29.96,SW,229,0.0,0.0,85,0.00,,---,0.04,VWS V13.01,2013-10-13 06:57:00,
2013-10-13 03:02:00,60.4,55.9,29.96,SW,229,0.0,0.0,85,0.00,,---,0.04,VWS V13.01,2013-10-13 07:02:00,
2013-10-13 03:07:00,60.4,55.9,29.96,SW,232,0.0,0.0,85,0.00,,---,0.04,VWS V13.01,2013-10-13 07:07:00,
2013-10-13 03:12:00,60.4,55.9,29.96,SW,232,0.0,0.0,85,0.00,,---,0.04,VWS V13.01,2013-10-13 07:12:00,
2013-10-13 03:17:00,60.4,55.9,29.96,SW,232,0.0,0.0,85,0.00,,---,0.04,VWS V13.01,2013-10-13 07:17:00,
2013-10-13 03:22:00,60.4,55.9,29.96,SW,232,0.0,0.0,85,0.00,,---,0.04,VWS V13.01,2013-10-13 07:22:00,
2013-10-13 03:27:00,60.4,55.9,29.96,WSW,241,3.6,3.6,85,0.00,,---,0.04,VWS V13.01,2013-10-13 07:27:00,
2013-10-13 03:32:00,60.4,55.9,29.96,SW,233,0.0,0.0,85,0.00,,---,0.04,VWS V13.01,2013-10-13 07:32:00,
2013-10-13 03:37:00,60.4,55.9,29.96,SSW,205,0.0,0.0,85,0.00,,---,0.04,VWS V13.01,2013-10-13 07:37:00,
2013-10-13 03:42:00,60.4,55.9,29.96,SW,230,2.7,2.7,85,0.00,,---,0.04,VWS V13.01,2013-10-13 07:42:00,
2013-10-13 03:47:00,60.3,55.7,29.96,SW,224,0.0,0.0,85,0.00,,---,0.04,VWS V13.01,2013-10-13 07:47:00,
2013-10-13 03:52:00,60.3,55.7,29.96,SW,221,0.0,0.0,85,0.00,,---,0.04,VWS V13.01,2013-10-13 07:52:00,
2013-10-13 03:57:00,60.3,55.7,29.96,SW,225,0.0,0.0,85,0.00,,---,0.04,VWS V13.01,2013-10-13 07:57:00,
2013-10-13 04:02:00,60.3,55.7,29.96,SW,225,0.0,0.0,85,0.00,,---,0.04,VWS V13.01,2013-10-13 08:02:00,
2013-10-13 04:07:00,60.3,55.7,29.96,SW,225,0.0,0.0,85,0.00,,---,0.04,VWS V13.01,2013-10-13 08:07:00,
2013-10-13 04:12:00,60.3,55.7,29.96,SW,225,0.0,0.0,85,0.00,,---,0.04,VWS V13.01,2013-10-13 08:12:00,
2013-10-13 04:17:00,60.3,56.1,29.96,SW,225,0.0,0.0,86,0.00,,---,0.04,VWS V13.01,2013-10-13 08:17:00,
2013-10-13 04:22:00,60.3,56.1,29.96,SW,221,0.0,3.6,86,0.00,,---,0.04,VWS V13.01,2013-10-13 08:22:00,
2013-10-13 04:27:00,60.1,55.9,29.96,SW,227,0.0,0.0,86,0.00,,---,0.04,VWS V13.01,2013-10-13 08:27:00,
2013-10-13 04:32:00,60.1,55.9,29.96,SW,227,0.0,0.0,86,0.00,,---,0.04,VWS V13.01,2013-10-13 08:32:00,
2013-10-13 04:37:00,60.1,55.9,29.96,SW,227,0.0,0.0,86,0.00,,---,0.04,VWS V13.01,2013-10-13 08:37:00,
2013-10-13 04:42:00,60.1,55.9,29.96,SW,227,0.0,0.0,86,0.00,,---,0.04,VWS V13.01,2013-10-13 08:42:00,
2013-10-13 04:47:00,60.1,55.9,29.96,SW,227,0.0,0.0,86,0.00,,---,0.04,VWS V13.01,2013-10-13 08:47:00,
2013-10-13 04:52:00,60.1,55.9,29.96,SW,227,2.7,2.7,86,0.00,,---,0.04,VWS V13.01,2013-10-13 08:52:00,
2013-10-13 04:57:00,60.1,55.9,29.96,SW,227,0.0,0.0,86,0.00,,---,0.04,VWS V13.01,2013-10-13 08:57:00,
2013-10-13 05:02:00,60.1,55.9,29.96,SW,227,0.0,0.0,86,0.00,,---,0.04,VWS V13.01,2013-10-13 09:02:00,
2013-10-13 05:07:00,60.1,55.9,29.96,SW,227,0.0,0.0,86,0.00,,---,0.04,VWS V13.01,2013-10-13 09:07:00,
2013-10-13 05:12:00,60.1,55.9,29.96,SW,227,0.0,0.0,86,0.00,,---,0.04,VWS V13.01,2013-10-13 09:12:00,
2013-10-13 05:17:00,60.1,55.9,29.96,SW,227,0.0,0.0,86,0.00,,---,0.04,VWS V13.01,2013-10-13 09:17:00,
2013-10-13 05:22:00,60.1,56.2,29.96,SW,227,0.0,0.0,87,0.00,,---,0.04,VWS V13.01,2013-10-13 09:22:00,
2013-10-13 05:27:00,60.1,56.2,29.96,SW,227,0.0,0.0,87,0.00,,---,0.04,VWS V13.01,2013-10-13 09:27:00,
2013-10-13 05:32:00,60.1,56.2,29.96,SW,227,0.0,0.0,87,0.00,,---,0.04,VWS V13.01,2013-10-13 09:32:00,
2013-10-13 05:37:00,60.1,56.2,29.96,SW,227,0.0,0.0,87,0.00,,---,0.04,VWS V13.01,2013-10-13 09:37:00,
2013-10-13 05:42:00,60.1,56.2,29.96,SW,227,0.0,0.0,87,0.00,,---,0.04,VWS V13.01,2013-10-13 09:42:00,
2013-10-13 05:47:00,60.1,56.2,29.96,SW,227,0.0,0.0,87,0.00,,---,0.04,VWS V13.01,2013-10-13 09:47:00,
2013-10-13 05:52:00,60.1,56.2,29.96,SW,227,0.0,0.0,87,0.00,,---,0.04,VWS V13.01,2013-10-13 09:52:00,
2013-10-13 05:57:00,60.1,56.2,29.96,SW,227,0.0,0.0,87,0.00,,---,0.04,VWS V13.01,2013-10-13 09:57:00,
2013-10-13 06:02:00,60.1,56.2,29.96,SW,227,0.0,0.0,87,0.00,,---,0.04,VWS V13.01,2013-10-13 10:02:00,
2013-10-13 06:07:00,60.1,56.2,29.96,SW,227,0.0,0.0,87,0.00,,---,0.04,VWS V13.01,2013-10-13 10:07:00,
2013-10-13 06:12:00,60.1,56.2,29.96,SW,227,0.0,0.0,87,0.00,,---,0.04,VWS V13.01,2013-10-13 10:12:00,
2013-10-13 06:17:00,60.1,56.2,29.96,SW,222,0.0,0.0,87,0.00,,---,0.04,VWS V13.01,2013-10-13 10:17:00,
2013-10-13 06:22:00,60.1,56.2,29.96,SW,222,0.0,0.0,87,0.00,,---,0.04,VWS V13.01,2013-10-13 10:22:00,
2013-10-13 06:27:00,60.1,56.2,29.96,SW,222,0.0,0.0,87,0.00,,---,0.04,VWS V13.01,2013-10-13 10:27:00,
2013-10-13 06:32:00,60.1,56.2,29.96,SW,217,0.0,0.0,87,0.00,,---,0.04,VWS V13.01,2013-10-13 10:32:00,
2013-10-13 06:37:00,60.1,56.2,29.96,SW,217,0.0,0.0,87,0.00,,---,0.04,VWS V13.01,2013-10-13 10:37:00,
2013-10-13 06:42:00,60.1,56.2,29.96,SW,219,0.0,0.0,87,0.00,,---,0.04,VWS V13.01,2013-10-13 10:42:00,
2013-10-13 06:47:00,60.1,56.2,29.96,SW,221,0.0,0.0,87,0.00,,---,0.04,VWS V13.01,2013-10-13 10:47:00,
2013-10-13 06:52:00,60.1,56.2,29.96,SW,233,0.0,3.6,87,0.08,,---,0.12,VWS V13.01,2013-10-13 10:52:00,
2013-10-13 06:57:00,60.1,56.2,29.96,SW,236,3.6,3.6,87,0.08,,---,0.12,VWS V13.01,2013-10-13 10:57:00,
2013-10-13 07:02:00,60.1,56.2,29.96,SW,236,0.0,0.0,87,0.08,,---,0.12,VWS V13.01,2013-10-13 11:02:00,
2013-10-13 07:07:00,60.1,56.2,29.96,SW,235,0.0,0.0,87,0.08,,---,0.12,VWS V13.01,2013-10-13 11:07:00,
2013-10-13 07:12:00,60.1,56.2,29.96,SW,235,0.0,0.0,87,0.08,,---,0.12,VWS V13.01,2013-10-13 11:12:00,
2013-10-13 07:17:00,60.1,56.2,29.96,SW,235,0.0,0.0,87,0.08,,---,0.12,VWS V13.01,2013-10-13 11:17:00,
2013-10-13 07:22:00,60.1,56.5,29.96,SW,236,0.0,2.2,88,0.08,,---,0.12,VWS V13.01,2013-10-13 11:22:00,
2013-10-13 07:27:00,60.1,56.5,29.96,SW,225,2.7,2.7,88,0.08,,---,0.12,VWS V13.01,2013-10-13 11:27:00,
2013-10-13 07:32:00,60.1,56.5,29.96,SW,225,0.0,0.0,88,0.08,,---,0.12,VWS V13.01,2013-10-13 11:32:00,
2013-10-13 07:37:00,60.1,56.5,29.96,SW,233,0.0,0.0,88,0.08,,---,0.12,VWS V13.01,2013-10-13 11:37:00,
2013-10-13 07:42:00,60.1,56.5,29.96,SW,233,0.0,0.0,88,0.08,,---,0.12,VWS V13.01,2013-10-13 11:42:00,
2013-10-13 07:47:00,60.3,56.7,29.96,SW,233,0.0,0.0,88,0.08,,---,0.12,VWS V13.01,2013-10-13 11:47:00,
2013-10-13 07:52:00,60.3,56.4,29.96,SW,225,2.7,2.7,87,0.00,,---,0.12,VWS V13.01,2013-10-13 11:52:00,
2013-10-13 07:57:00,60.3,56.4,29.96,SW,225,0.0,0.0,87,0.00,,---,0.12,VWS V13.01,2013-10-13 11:57:00,
2013-10-13 08:02:00,60.3,56.4,29.96,SW,230,0.0,0.0,87,0.00,,---,0.12,VWS V13.01,2013-10-13 12:02:00,
2013-10-13 08:07:00,60.3,56.4,29.96,SW,230,0.0,0.0,87,0.00,,---,0.12,VWS V13.01,2013-10-13 12:07:00,
2013-10-13 08:12:00,60.4,56.6,29.96,SW,230,0.0,0.0,87,0.00,,---,0.12,VWS V13.01,2013-10-13 12:12:00,
2013-10-13 08:17:00,60.4,56.6,29.96,SW,234,3.1,3.1,87,0.00,,---,0.12,VWS V13.01,2013-10-13 12:17:00,
2013-10-13 08:22:00,60.6,56.7,29.96,SW,233,0.0,0.0,87,0.00,,---,0.12,VWS V13.01,2013-10-13 12:22:00,
2013-10-13 08:27:00,60.6,56.4,29.96,SW,221,0.0,0.0,86,0.00,,---,0.12,VWS V13.01,2013-10-13 12:27:00,
2013-10-13 08:32:00,60.6,56.4,29.96,SW,216,0.0,0.0,86,0.00,,---,0.12,VWS V13.01,2013-10-13 12:32:00,
2013-10-13 08:37:00,60.6,56.4,29.96,SW,227,0.0,0.0,86,0.00,,---,0.12,VWS V13.01,2013-10-13 12:37:00,
2013-10-13 08:42:00,60.8,56.3,29.96,SW,227,0.0,0.0,85,0.00,,---,0.12,VWS V13.01,2013-10-13 12:42:00,
2013-10-13 08:47:00,60.8,56.3,29.96,SW,221,0.0,0.0,85,0.00,,---,0.12,VWS V13.01,2013-10-13 12:47:00,
2013-10-13 08:52:00,61.0,56.5,29.96,SW,221,0.0,0.0,85,0.00,,---,0.12,VWS V13.01,2013-10-13 12:52:00,
2013-10-13 08:57:00,61.0,56.1,29.96,SW,232,0.0,0.0,84,0.00,,---,0.12,VWS V13.01,2013-10-13 12:57:00,
2013-10-13 09:02:00,61.2,56.3,29.96,SW,232,0.0,0.0,84,0.00,,---,0.12,VWS V13.01,2013-10-13 13:02:00,
2013-10-13 09:07:00,61.3,56.5,29.96,SW,232,0.0,0.0,84,0.00,,---,0.12,VWS V13.01,2013-10-13 13:07:00,
2013-10-13 09:12:00,61.3,56.5,29.96,SW,221,0.0,0.0,84,0.00,,---,0.12,VWS V13.01,2013-10-13 13:12:00,
2013-10-13 09:17:00,61.3,56.1,29.96,SW,221,0.0,0.0,83,0.00,,---,0.12,VWS V13.01,2013-10-13 13:17:00,
2013-10-13 09:22:00,61.3,56.1,29.96,WSW,239,0.0,0.0,83,0.00,,---,0.12,VWS V13.01,2013-10-13 13:22:00,
2013-10-13 09:27:00,61.5,56.3,29.96,SW,226,0.0,0.0,83,0.00,,---,0.12,VWS V13.01,2013-10-13 13:27:00,
2013-10-13 09:32:00,61.5,56.0,29.96,SW,225,0.0,0.0,82,0.00,,---,0.12,VWS V13.01,2013-10-13 13:32:00,
2013-10-13 09:37:00,61.5,56.0,29.96,SSW,210,0.0,0.0,82,0.00,,---,0.12,VWS V13.01,2013-10-13 13:37:00,
2013-10-13 09:42:00,61.7,55.8,29.96,SSW,210,0.0,0.0,81,0.00,,---,0.12,VWS V13.01,2013-10-13 13:42:00,
2013-10-13 09:47:00,61.9,55.7,29.96,SW,216,0.0,0.0,80,0.00,,---,0.12,VWS V13.01,2013-10-13 13:47:00,
2013-10-13 09:52:00,61.9,55.7,29.96,SW,222,0.0,0.0,80,0.00,,---,0.12,VWS V13.01,2013-10-13 13:52:00,
2013-10-13 09:57:00,61.7,55.1,29.96,SW,222,2.2,2.2,79,0.00,,---,0.12,VWS V13.01,2013-10-13 13:57:00,
2013-10-13 10:02:00,61.7,54.8,29.96,SSW,212,4.0,4.0,78,0.00,,---,0.12,VWS V13.01,2013-10-13 14:02:00,
2013-10-13 10:07:00,61.9,55.0,29.96,SW,229,2.7,2.7,78,0.00,,---,0.12,VWS V13.01,2013-10-13 14:07:00,
2013-10-13 10:12:00,61.9,54.6,29.96,SW,227,3.1,3.1,77,0.00,,---,0.12,VWS V13.01,2013-10-13 14:12:00,
2013-10-13 10:17:00,61.9,54.6,29.96,SW,214,0.0,0.0,77,0.00,,---,0.12,VWS V13.01,2013-10-13 14:17:00,
2013-10-13 10:22:00,62.1,54.8,29.96,SW,217,2.7,2.7,77,0.00,,---,0.12,VWS V13.01,2013-10-13 14:22:00,
2013-10-13 10:27:00,62.1,54.8,29.96,SW,223,0.0,0.0,77,0.00,,---,0.12,VWS V13.01,2013-10-13 14:27:00,
2013-10-13 10:32:00,62.2,54.6,29.96,SW,223,3.1,3.1,76,0.00,,---,0.12,VWS V13.01,2013-10-13 14:32:00,
2013-10-13 10:37:00,62.2,54.6,29.96,SW,227,4.0,4.0,76,0.00,,---,0.12,VWS V13.01,2013-10-13 14:37:00,
2013-10-13 10:42:00,62.4,54.8,29.96,SW,230,0.0,0.0,76,0.00,,---,0.12,VWS V13.01,2013-10-13 14:42:00,
2013-10-13 10:47:00,62.2,54.2,29.96,SW,230,3.6,3.6,75,0.00,,---,0.12,VWS V13.01,2013-10-13 14:47:00,
2013-10-13 10:52:00,62.6,54.9,29.96,SW,233,0.0,2.2,76,0.00,,---,0.12,VWS V13.01,2013-10-13 14:52:00,
2013-10-13 10:57:00,62.8,55.1,29.96,SW,229,4.9,4.9,76,0.00,,---,0.12,VWS V13.01,2013-10-13 14:57:00,
2013-10-13 11:02:00,63.0,54.5,29.96,SW,234,3.1,3.1,74,0.00,,---,0.12,VWS V13.01,2013-10-13 15:02:00,
2013-10-13 11:07:00,63.1,54.7,29.96,SW,227,3.6,4.0,74,0.00,,---,0.12,VWS V13.01,2013-10-13 15:07:00,
2013-10-13 11:12:00,63.1,54.3,29.96,SW,214,2.2,2.7,73,0.00,,---,0.12,VWS V13.01,2013-10-13 15:12:00,
2013-10-13 11:17:00,63.0,53.0,29.96,SW,224,4.9,4.9,70,0.00,,---,0.12,VWS V13.01,2013-10-13 15:17:00,
2013-10-13 11:22:00,63.0,53.4,29.96,SW,223,4.0,4.0,71,0.00,,---,0.12,VWS V13.01,2013-10-13 15:22:00,
2013-10-13 11:27:00,63.0,53.0,29.96,SSW,208,3.6,3.6,70,0.00,,---,0.12,VWS V13.01,2013-10-13 15:27:00,
2013-10-13 11:32:00,63.0,53.4,29.96,SSW,213,2.7,3.1,71,0.00,,---,0.12,VWS V13.01,2013-10-13 15:32:00,
2013-10-13 11:38:00,63.1,53.2,29.96,SW,229,3.6,3.6,70,0.00,,---,0.12,VWS V13.01,2013-10-13 15:38:00,
2013-10-13 11:43:00,63.1,53.2,29.96,WSW,239,3.6,3.6,70,0.00,,---,0.12,VWS V13.01,2013-10-13 15:43:00,
2013-10-13 11:48:00,63.3,53.4,29.96,SW,227,0.0,0.0,70,0.00,,---,0.12,VWS V13.01,2013-10-13 15:48:00,
2013-10-13 11:53:00,63.5,53.5,29.96,SW,227,0.0,0.0,70,0.00,,---,0.12,VWS V13.01,2013-10-13 15:53:00,
2013-10-13 11:58:00,63.5,53.5,29.96,SSW,212,0.0,0.0,70,0.00,,---,0.12,VWS V13.01,2013-10-13 15:58:00,
2013-10-13 12:03:00,63.3,53.0,29.96,SW,223,0.0,0.0,69,0.00,,---,0.12,VWS V13.01,2013-10-13 16:03:00,
2013-10-13 12:08:00,63.3,53.0,29.96,SW,221,0.0,0.0,69,0.00,,---,0.12,VWS V13.01,2013-10-13 16:08:00,
2013-10-13 12:13:00,63.3,53.0,29.96,SW,219,0.0,2.7,69,0.00,,---,0.12,VWS V13.01,2013-10-13 16:13:00,
2013-10-13 12:18:00,63.3,53.0,29.96,SW,217,2.7,3.1,69,0.00,,---,0.12,VWS V13.01,2013-10-13 16:18:00,
2013-10-13 12:23:00,63.3,53.0,29.96,SW,229,4.0,4.0,69,0.00,,---,0.12,VWS V13.01,2013-10-13 16:23:00,
2013-10-13 12:28:00,63.3,53.0,29.96,SW,219,0.0,2.7,69,0.00,,---,0.12,VWS V13.01,2013-10-13 16:28:00,
2013-10-13 12:33:00,63.5,53.5,29.96,SW,233,0.0,0.0,70,0.00,,---,0.12,VWS V13.01,2013-10-13 16:33:00,
2013-10-13 12:38:00,63.5,53.5,29.96,SW,228,0.0,0.0,70,0.00,,---,0.12,VWS V13.01,2013-10-13 16:38:00,
2013-10-13 12:43:00,63.7,53.7,29.96,SW,225,0.0,0.0,70,0.00,,---,0.12,VWS V13.01,2013-10-13 16:43:00,
2013-10-13 12:48:00,63.7,53.3,29.96,SW,225,0.0,0.0,69,0.00,,---,0.12,VWS V13.01,2013-10-13 16:48:00,
2013-10-13 12:53:00,63.5,52.4,29.96,SW,224,0.0,0.0,67,0.00,,---,0.12,VWS V13.01,2013-10-13 16:53:00,
2013-10-13 12:57:00,63.7,52.9,29.96,SSW,212,2.7,3.1,68,0.00,,---,0.12,VWS V13.01,2013-10-13 16:57:00,
2013-10-13 13:02:00,63.5,52.8,29.96,SW,215,0.0,0.0,68,0.00,,---,0.12,VWS V13.01,2013-10-13 17:02:00,
2013-10-13 13:07:00,63.5,52.4,29.96,SW,217,0.0,0.0,67,0.00,,---,0.12,VWS V13.01,2013-10-13 17:07:00,
2013-10-13 13:12:00,63.7,52.5,29.96,SW,233,0.0,0.0,67,0.00,,---,0.12,VWS V13.01,2013-10-13 17:12:00,
2013-10-13 13:17:00,63.7,52.5,29.96,SW,236,4.0,4.0,67,0.00,,---,0.12,VWS V13.01,2013-10-13 17:17:00,
2013-10-13 13:22:00,63.7,52.9,29.96,SSW,211,0.0,0.0,68,0.00,,---,0.12,VWS V13.01,2013-10-13 17:22:00,
2013-10-13 13:27:00,64.0,53.7,29.96,SW,233,3.6,3.6,69,0.00,,---,0.12,VWS V13.01,2013-10-13 17:27:00,
2013-10-13 13:32:00,64.0,53.3,29.96,SW,230,0.0,0.0,68,0.00,,---,0.12,VWS V13.01,2013-10-13 17:32:00,
2013-10-13 13:37:00,64.2,53.5,29.96,SW,230,0.0,0.0,68,0.00,,---,0.12,VWS V13.01,2013-10-13 17:37:00,
2013-10-13 13:42:00,64.2,53.8,29.96,SW,229,0.0,0.0,69,0.00,,---,0.12,VWS V13.01,2013-10-13 17:42:00,
2013-10-13 13:47:00,64.2,53.8,29.96,SW,228,0.0,0.0,69,0.00,,---,0.12,VWS V13.01,2013-10-13 17:47:00,
2013-10-13 13:53:00,64.0,53.7,29.96,SW,216,0.0,0.0,69,0.00,,---,0.12,VWS V13.01,2013-10-13 17:53:00,
2013-10-13 13:58:00,63.9,53.5,29.96,SW,217,0.0,0.0,69,0.00,,---,0.12,VWS V13.01,2013-10-13 17:58:00,
2013-10-13 14:03:00,63.7,53.3,29.96,SW,217,0.0,0.0,69,0.00,,---,0.12,VWS V13.01,2013-10-13 18:03:00,
2013-10-13 14:08:00,63.5,53.5,29.96,SW,225,0.0,0.0,70,0.00,,---,0.12,VWS V13.01,2013-10-13 18:08:00,
2013-10-13 14:13:00,63.5,53.5,29.96,SW,225,0.0,0.0,70,0.00,,---,0.12,VWS V13.01,2013-10-13 18:13:00,
2013-10-13 14:18:00,63.5,53.5,29.96,SW,216,0.0,0.0,70,0.00,,---,0.12,VWS V13.01,2013-10-13 18:18:00,
2013-10-13 14:23:00,63.3,53.8,29.96,SW,234,0.0,2.7,71,0.00,,---,0.12,VWS V13.01,2013-10-13 18:23:00,
2013-10-13 14:28:00,63.3,53.8,29.96,SW,234,0.0,0.0,71,0.00,,---,0.12,VWS V13.01,2013-10-13 18:28:00,
2013-10-13 14:33:00,63.3,54.2,29.96,SW,234,0.0,0.0,72,0.00,,---,0.12,VWS V13.01,2013-10-13 18:33:00,
2013-10-13 14:38:00,63.1,54.0,29.96,SW,221,0.0,0.0,72,0.00,,---,0.12,VWS V13.01,2013-10-13 18:38:00,
2013-10-13 14:43:00,63.1,54.0,29.96,SW,221,0.0,0.0,72,0.00,,---,0.12,VWS V13.01,2013-10-13 18:43:00,
2013-10-13 14:48:00,63.1,54.0,29.96,SW,221,0.0,0.0,72,0.00,,---,0.12,VWS V13.01,2013-10-13 18:48:00,
2013-10-13 14:53:00,63.1,54.3,29.96,SW,221,0.0,0.0,73,0.00,,---,0.12,VWS V13.01,2013-10-13 18:53:00,
2013-10-13 14:58:00,63.1,54.3,29.96,SW,221,0.0,0.0,73,0.00,,---,0.12,VWS V13.01,2013-10-13 18:58:00,
2013-10-13 15:03:00,63.1,54.7,29.96,SW,231,0.0,0.0,74,0.00,,---,0.12,VWS V13.01,2013-10-13 19:03:00,
2013-10-13 15:08:00,63.0,54.2,29.96,SW,225,2.7,2.7,73,0.00,,---,0.12,VWS V13.01,2013-10-13 19:08:00,
2013-10-13 15:13:00,63.0,54.2,29.96,WSW,238,3.1,3.1,73,0.00,,---,0.12,VWS V13.01,2013-10-13 19:13:00,
2013-10-13 15:18:00,62.8,54.0,29.96,SW,217,2.7,2.7,73,0.00,,---,0.12,VWS V13.01,2013-10-13 19:18:00,
2013-10-13 15:23:00,62.6,53.8,29.96,SW,218,0.0,0.0,73,0.00,,---,0.12,VWS V13.01,2013-10-13 19:23:00,
2013-10-13 15:28:00,62.6,53.8,29.96,SW,222,0.0,0.0,73,0.00,,---,0.12,VWS V13.01,2013-10-13 19:28:00,
2013-10-13 15:33:00,62.6,53.8,29.96,SW,218,2.7,2.7,73,0.00,,---,0.12,VWS V13.01,2013-10-13 19:33:00,
2013-10-13 15:38:00,62.6,54.2,29.96,SW,221,0.0,0.0,74,0.00,,---,0.12,VWS V13.01,2013-10-13 19:38:00,
2013-10-13 15:43:00,62.6,54.2,29.96,SW,229,2.7,2.7,74,0.00,,---,0.12,VWS V13.01,2013-10-13 19:43:00,
2013-10-13 15:48:00,62.4,54.4,29.96,SW,227,3.1,3.1,75,0.00,,---,0.12,VWS V13.01,2013-10-13 19:48:00,
2013-10-13 15:53:00,62.4,54.4,29.96,SW,236,0.0,0.0,75,0.00,,---,0.12,VWS V13.01,2013-10-13 19:53:00,
2013-10-13 15:58:00,62.4,54.8,29.96,SW,232,3.6,3.6,76,0.00,,---,0.12,VWS V13.01,2013-10-13 19:58:00,
2013-10-13 16:03:00,62.4,54.4,29.96,SW,230,2.7,2.7,75,0.00,,---,0.12,VWS V13.01,2013-10-13 20:03:00,
2013-10-13 16:08:00,62.6,54.2,29.96,SW,221,0.0,0.0,74,0.00,,---,0.12,VWS V13.01,2013-10-13 20:08:00,
2013-10-13 16:13:00,62.6,54.2,29.96,SW,221,0.0,0.0,74,0.00,,---,0.12,VWS V13.01,2013-10-13 20:13:00,
2013-10-13 16:18:00,62.6,53.8,29.96,SW,225,0.0,2.7,73,0.00,,---,0.12,VWS V13.01,2013-10-13 20:18:00,
2013-10-13 16:23:00,62.8,54.0,29.96,SW,233,2.7,2.7,73,0.00,,---,0.12,VWS V13.01,2013-10-13 20:23:00,
2013-10-13 16:28:00,62.8,53.6,29.96,SW,233,0.0,0.0,72,0.00,,---,0.12,VWS V13.01,2013-10-13 20:28:00,
2013-10-13 16:33:00,63.0,53.8,29.96,SW,225,5.4,5.4,72,0.00,,---,0.12,VWS V13.01,2013-10-13 20:33:00,
2013-10-13 16:38:00,62.8,53.6,29.96,SW,236,4.0,4.0,72,0.00,,---,0.12,VWS V13.01,2013-10-13 20:38:00,
2013-10-13 16:43:00,62.8,53.6,29.96,SW,226,2.7,2.7,72,0.00,,---,0.12,VWS V13.01,2013-10-13 20:43:00,
2013-10-13 16:48:00,62.6,53.1,29.96,SW,230,0.0,0.0,71,0.00,,---,0.12,VWS V13.01,2013-10-13 20:48:00,
2013-10-13 16:53:00,62.6,53.1,29.96,SW,224,2.7,2.7,71,0.00,,---,0.12,VWS V13.01,2013-10-13 20:53:00,
2013-10-13 16:58:00,62.6,53.1,29.96,SW,228,3.6,4.0,71,0.00,,---,0.12,VWS V13.01,2013-10-13 20:58:00,
2013-10-13 17:03:00,62.6,53.1,29.96,SW,228,0.0,0.0,71,0.00,,---,0.12,VWS V13.01,2013-10-13 21:03:00,
2013-10-13 17:08:00,62.6,53.1,29.96,SSW,211,2.2,2.2,71,0.00,,---,0.12,VWS V13.01,2013-10-13 21:08:00,
2013-10-13 17:13:00,62.8,52.9,29.96,SW,229,3.6,3.6,70,0.00,,---,0.12,VWS V13.01,2013-10-13 21:13:00,
2013-10-13 17:18:00,62.8,52.9,29.96,SW,226,0.0,0.0,70,0.00,,---,0.12,VWS V13.01,2013-10-13 21:18:00,
2013-10-13 17:23:00,62.8,52.9,29.96,SW,226,0.0,0.0,70,0.00,,---,0.12,VWS V13.01,2013-10-13 21:23:00,
2013-10-13 17:28:00,63.0,53.0,29.96,SW,226,0.0,0.0,70,0.00,,---,0.12,VWS V13.01,2013-10-13 21:28:00,
2013-10-13 17:33:00,62.8,52.9,29.96,SW,219,0.0,0.0,70,0.00,,---,0.12,VWS V13.01,2013-10-13 21:33:00,
2013-10-13 17:38:00,62.8,52.5,29.96,SW,225,2.7,2.7,69,0.00,,---,0.12,VWS V13.01,2013-10-13 21:38:00,
2013-10-13 17:43:00,62.8,52.5,29.96,SW,225,2.7,2.7,69,0.00,,---,0.12,VWS V13.01,2013-10-13 21:43:00,
2013-10-13 17:48:00,62.6,52.7,29.96,SW,224,2.7,2.7,70,0.00,,---,0.12,VWS V13.01,2013-10-13 21:48:00,
2013-10-13 17:53:00,62.6,52.3,29.96,SW,229,0.0,2.2,69,0.00,,---,0.12,VWS V13.01,2013-10-13 21:53:00,
2013-10-13 17:58:00,62.6,52.7,29.96,SW,235,2.7,2.7,70,0.00,,---,0.12,VWS V13.01,2013-10-13 21:58:00,
2013-10-13 18:03:00,62.6,52.7,29.96,SW,228,3.6,3.6,70,0.00,,---,0.12,VWS V13.01,2013-10-13 22:03:00,
2013-10-13 18:08:00,62.6,52.7,29.96,SW,234,3.1,3.6,70,0.00,,---,0.12,VWS V13.01,2013-10-13 22:08:00,
2013-10-13 18:13:00,62.2,53.1,29.96,SW,234,0.0,0.0,72,0.00,,---,0.12,VWS V13.01,2013-10-13 22:13:00,
2013-10-13 18:18:00,62.2,53.1,29.96,SW,225,0.0,2.2,72,0.00,,---,0.12,VWS V13.01,2013-10-13 22:18:00,
2013-10-13 18:23:00,62.2,53.5,29.96,SW,225,0.0,0.0,73,0.00,,---,0.12,VWS V13.01,2013-10-13 22:23:00,
2013-10-13 18:28:00,62.2,53.5,29.96,SW,225,0.0,0.0,73,0.00,,---,0.12,VWS V13.01,2013-10-13 22:28:00,
2013-10-13 18:33:00,62.2,53.5,29.96,SW,226,0.0,0.0,73,0.00,,---,0.12,VWS V13.01,2013-10-13 22:33:00,
2013-10-13 18:38:00,62.1,53.3,29.96,SW,226,0.0,0.0,73,0.00,,---,0.12,VWS V13.01,2013-10-13 22:38:00,
2013-10-13 18:43:00,62.1,53.3,29.96,SW,223,0.0,0.0,73,0.00,,---,0.12,VWS V13.01,2013-10-13 22:43:00,
2013-10-13 18:48:00,62.1,53.3,29.96,SW,223,0.0,0.0,73,0.00,,---,0.12,VWS V13.01,2013-10-13 22:48:00,
2013-10-13 18:53:00,62.1,53.3,29.96,SW,223,0.0,0.0,73,0.00,,---,0.12,VWS V13.01,2013-10-13 22:53:00,
2013-10-13 18:58:00,62.1,53.3,29.96,SW,223,0.0,0.0,73,0.00,,---,0.12,VWS V13.01,2013-10-13 22:58:00,
2013-10-13 19:03:00,62.1,53.3,29.96,SW,223,0.0,0.0,73,0.00,,---,0.12,VWS V13.01,2013-10-13 23:03:00,
2013-10-13 19:08:00,62.1,53.3,29.96,SW,236,3.6,3.6,73,0.00,,---,0.12,VWS V13.01,2013-10-13 23:08:00,
2013-10-13 19:13:00,61.9,53.1,29.96,SW,216,2.7,2.7,73,0.00,,---,0.12,VWS V13.01,2013-10-13 23:13:00,
2013-10-13 19:18:00,61.9,52.8,29.96,SW,229,2.7,2.7,72,0.00,,---,0.12,VWS V13.01,2013-10-13 23:18:00,
2013-10-13 19:23:00,61.9,52.8,29.96,SW,220,2.2,2.7,72,0.00,,---,0.12,VWS V13.01,2013-10-13 23:23:00,
2013-10-13 19:28:00,61.9,52.8,29.96,SW,223,3.1,3.1,72,0.00,,---,0.12,VWS V13.01,2013-10-13 23:28:00,
2013-10-13 19:33:00,61.7,52.6,29.96,SW,226,2.7,2.7,72,0.00,,---,0.12,VWS V13.01,2013-10-13 23:33:00,
2013-10-13 19:38:00,61.5,52.4,29.96,SW,221,4.0,5.4,72,0.00,,---,0.12,VWS V13.01,2013-10-13 23:38:00,
2013-10-13 19:43:00,61.3,52.2,29.96,SW,225,2.7,2.7,72,0.00,,---,0.12,VWS V13.01,2013-10-13 23:43:00,
2013-10-13 19:48:00,61.2,52.1,29.96,SW,220,2.7,2.7,72,0.00,,---,0.12,VWS V13.01,2013-10-13 23:48:00,
2013-10-13 19:53:00,61.0,52.3,29.96,SW,231,3.6,3.6,73,0.00,,---,0.12,VWS V13.01,2013-10-13 23:53:00,
2013-10-13 19:58:00,60.8,51.7,29.96,SW,218,2.2,2.2,72,0.00,,---,0.12,VWS V13.01,2013-10-13 23:58:00,
2013-10-13 20:03:00,60.8,52.1,29.96,SW,228,2.7,3.1,73,0.00,,---,0.12,VWS V13.01,2013-10-14 00:03:00,
2013-10-13 20:08:00,60.8,52.1,29.96,SW,235,4.0,4.0,73,0.00,,---,0.12,VWS V13.01,2013-10-14 00:08:00,
2013-10-13 20:13:00,60.8,52.1,29.96,SW,230,2.7,4.0,73,0.00,,---,0.12,VWS V13.01,2013-10-14 00:13:00,
2013-10-13 20:18:00,60.6,51.9,29.96,SW,223,2.7,3.6,73,0.00,,---,0.12,VWS V13.01,2013-10-14 00:18:00,
2013-10-13 20:23:00,60.6,51.9,29.96,SW,227,3.6,5.4,73,0.00,,---,0.12,VWS V13.01,2013-10-14 00:23:00,
2013-10-13 20:28:00,60.6,51.6,29.96,SW,229,2.7,2.7,72,0.00,,---,0.12,VWS V13.01,2013-10-14 00:28:00,
2013-10-13 20:33:00,60.6,51.6,29.96,SW,229,2.7,2.7,72,0.00,,---,0.12,VWS V13.01,2013-10-14 00:33:00,
2013-10-13 20:38:00,60.6,51.9,29.96,SW,229,0.0,0.0,73,0.00,,---,0.12,VWS V13.01,2013-10-14 00:38:00,
2013-10-13 20:43:00,60.6,51.9,29.96,SW,232,0.0,0.0,73,0.00,,---,0.12,VWS V13.01,2013-10-14 00:43:00,
2013-10-13 20:48:00,60.6,51.9,29.96,WSW,240,2.2,2.2,73,0.00,,---,0.12,VWS V13.01,2013-10-14 00:48:00,
2013-10-13 20:53:00,60.6,51.9,29.96,SW,222,0.0,0.0,73,0.00,,---,0.12,VWS V13.01,2013-10-14 00:53:00,
2013-10-13 20:58:00,60.6,51.9,29.96,SW,218,2.2,2.2,73,0.00,,---,0.12,VWS V13.01,2013-10-14 00:58:00,
2013-10-13 21:03:00,60.6,51.6,29.96,SW,221,3.6,3.6,72,0.00,,---,0.12,VWS V13.01,2013-10-14 01:03:00,
2013-10-13 21:08:00,60.4,51.4,29.96,SW,231,3.6,3.6,72,0.00,,---,0.12,VWS V13.01,2013-10-14 01:08:00,
2013-10-13 21:13:00,60.4,51.4,29.96,SSW,207,0.0,0.0,72,0.00,,---,0.12,VWS V13.01,2013-10-14 01:13:00,
2013-10-13 21:18:00,60.4,51.4,29.96,WSW,238,3.1,3.1,72,0.00,,---,0.12,VWS V13.01,2013-10-14 01:18:00,
2013-10-13 21:23:00,60.4,51.0,29.96,SW,233,3.1,3.1,71,0.00,,---,0.12,VWS V13.01,2013-10-14 01:23:00,
2013-10-13 21:28:00,60.3,50.8,29.96,SW,234,3.1,3.1,71,0.00,,---,0.12,VWS V13.01,2013-10-14 01:28:00,
2013-10-13 21:33:00,60.3,50.5,29.96,SW,233,3.1,3.1,70,0.00,,---,0.12,VWS V13.01,2013-10-14 01:33:00,
2013-10-13 21:38:00,60.3,50.5,29.96,SW,226,0.0,0.0,70,0.00,,---,0.12,VWS V13.01,2013-10-14 01:38:00,
2013-10-13 21:43:00,60.3,50.5,29.96,SW,233,0.0,0.0,70,0.00,,---,0.12,VWS V13.01,2013-10-14 01:43:00,
2013-10-13 21:48:00,60.3,50.5,29.96,WSW,237,4.0,4.0,70,0.00,,---,0.12,VWS V13.01,2013-10-14 01:48:00,
2013-10-13 21:53:00,60.3,50.5,29.96,SW,215,0.0,0.0,70,0.00,,---,0.12,VWS V13.01,2013-10-14 01:53:00,
2013-10-13 21:58:00,60.1,50.7,29.96,SW,230,4.9,4.9,71,0.00,,---,0.12,VWS V13.01,2013-10-14 01:58:00,
2013-10-13 22:03:00,60.1,50.3,29.96,SW,224,3.6,3.6,70,0.00,,---,0.12,VWS V13.01,2013-10-14 02:03:00,
2013-10-13 22:08:00,60.1,50.3,29.96,SW,233,4.0,4.0,70,0.00,,---,0.12,VWS V13.01,2013-10-14 02:08:00,
2013-10-13 22:13:00,59.9,50.1,29.96,SW,223,2.2,3.1,70,0.00,,---,0.12,VWS V13.01,2013-10-14 02:13:00,
2013-10-13 22:18:00,59.9,50.1,29.96,SW,223,0.0,0.0,70,0.00,,---,0.12,VWS V13.01,2013-10-14 02:18:00,
2013-10-13 22:23:00,59.9,50.5,29.96,SW,223,0.0,0.0,71,0.00,,---,0.12,VWS V13.01,2013-10-14 02:23:00,
2013-10-13 22:28:00,59.9,50.5,29.96,SW,222,0.0,0.0,71,0.00,,---,0.12,VWS V13.01,2013-10-14 02:28:00,
2013-10-13 22:33:00,59.9,50.5,29.96,SW,233,0.0,2.7,71,0.00,,---,0.12,VWS V13.01,2013-10-14 02:33:00,
2013-10-13 22:38:00,59.7,50.3,29.96,SW,233,2.7,2.7,71,0.00,,---,0.12,VWS V13.01,2013-10-14 02:38:00,
2013-10-13 22:43:00,59.7,50.7,29.96,SW,233,0.0,0.0,72,0.00,,---,0.12,VWS V13.01,2013-10-14 02:43:00,
2013-10-13 22:48:00,59.7,50.7,29.96,SW,233,0.0,0.0,72,0.00,,---,0.12,VWS V13.01,2013-10-14 02:48:00,
2013-10-13 22:53:00,59.5,50.9,29.96,SW,233,0.0,0.0,73,0.00,,---,0.12,VWS V13.01,2013-10-14 02:53:00,
2013-10-13 22:58:00,59.5,51.3,29.96,SW,233,0.0,0.0,74,0.00,,---,0.12,VWS V13.01,2013-10-14 02:58:00,
2013-10-13 23:03:00,59.4,51.1,29.96,SW,233,2.7,2.7,74,0.00,,---,0.12,VWS V13.01,2013-10-14 03:03:00,
2013-10-13 23:08:00,59.4,51.5,29.96,SSW,209,0.0,0.0,75,0.00,,---,0.12,VWS V13.01,2013-10-14 03:08:00,
2013-10-13 23:13:00,59.2,51.6,29.96,SW,222,0.0,0.0,76,0.00,,---,0.12,VWS V13.01,2013-10-14 03:13:00,
2013-10-13 23:18:00,59.2,51.6,29.96,SW,222,0.0,0.0,76,0.00,,---,0.12,VWS V13.01,2013-10-14 03:18:00,
2013-10-13 23:23:00,59.0,51.8,29.96,SW,232,4.0,4.0,77,0.00,,---,0.12,VWS V13.01,2013-10-14 03:23:00,
2013-10-13 23:28:00,59.0,51.8,29.96,SW,225,0.0,0.0,77,0.00,,---,0.12,VWS V13.01,2013-10-14 03:28:00,
2013-10-13 23:33:00,59.0,52.2,29.96,SW,221,2.7,2.7,78,0.00,,---,0.12,VWS V13.01,2013-10-14 03:33:00,
2013-10-13 23:38:00,58.8,52.3,29.96,SW,221,0.0,0.0,79,0.00,,---,0.12,VWS V13.01,2013-10-14 03:38:00,
2013-10-13 23:43:00,58.8,52.3,29.96,SW,221,0.0,0.0,79,0.00,,---,0.12,VWS V13.01,2013-10-14 03:43:00,
2013-10-13 23:48:00,58.8,52.7,29.96,SW,220,0.0,0.0,80,0.00,,---,0.12,VWS V13.01,2013-10-14 03:48:00,
2013-10-13 23:53:00,58.8,52.7,29.96,SW,220,0.0,0.0,80,0.00,,---,0.12,VWS V13.01,2013-10-14 03:53:00,
2013-10-13 23:58:00,58.8,52.7,29.96,SW,229,0.0,0.0,80,0.00,,---,0.12,VWS V13.01,2013-10-14 03:58:00,